createdAt,value
2022-11-04T00:01:37.941Z,1.52
2022-11-04T00:04:05.198Z,1.98
2022-11-04T00:06:32.288Z,1.92
2022-11-04T00:08:59.763Z,0.75
2022-11-04T00:11:46.609Z,0.47
2022-11-04T00:14:14.381Z,0.55
2022-11-04T00:17:00.498Z,0.30
2022-11-04T00:19:27.698Z,1.20
2022-11-04T00:22:13.864Z,0.55
2022-11-04T00:24:43.542Z,1.95
2022-11-04T00:27:34.156Z,0.80
2022-11-04T00:30:01.944Z,0.75
2022-11-04T00:32:47.641Z,0.75
2022-11-04T00:35:14.669Z,2.13
2022-11-04T00:37:43.237Z,0.65
2022-11-04T00:40:12.616Z,0.70
2022-11-04T00:42:40.109Z,0.75
2022-11-04T00:45:07.626Z,1.80
2022-11-04T00:47:34.642Z,0.98
2022-11-04T00:50:01.633Z,2.53
2022-11-04T00:52:28.600Z,2.78
2022-11-04T00:54:55.593Z,1.27
2022-11-04T00:57:22.674Z,0.88
2022-11-04T00:59:49.730Z,1.83
2022-11-04T01:02:17.094Z,1.48
2022-11-04T01:04:44.173Z,5.82
2022-11-04T01:07:11.924Z,3.00
2022-11-04T01:09:39.025Z,3.10
2022-11-04T01:12:06.244Z,2.10
2022-11-04T01:14:36.693Z,1.30
2022-11-04T01:17:03.722Z,1.83
2022-11-04T01:19:31.095Z,2.58
2022-11-04T01:21:58.923Z,4.38
2022-11-04T01:24:26.222Z,1.08
2022-11-04T01:26:53.201Z,4.03
2022-11-04T01:29:20.294Z,3.47
2022-11-04T01:31:47.362Z,2.42
2022-11-04T01:34:14.455Z,2.38
2022-11-04T01:36:41.491Z,1.77
2022-11-04T01:39:09.577Z,1.40
2022-11-04T01:41:36.629Z,2.08
2022-11-04T01:44:25.013Z,1.98
2022-11-04T01:46:54.019Z,1.80
2022-11-04T01:49:28.939Z,0.77
2022-11-04T01:52:05.410Z,3.75
2022-11-04T01:54:34.744Z,1.65
2022-11-04T01:57:05.279Z,2.67
2022-11-04T01:59:38.904Z,7.78
2022-11-04T02:02:06.873Z,1.38
2022-11-04T02:04:34.697Z,1.60
2022-11-04T02:07:06.965Z,3.55
2022-11-04T02:09:35.990Z,2.05
2022-11-04T02:12:22.411Z,1.17
2022-11-04T02:14:50.467Z,7.03
2022-11-04T02:17:20.228Z,1.08
2022-11-04T02:20:14.929Z,1.00
2022-11-04T02:22:41.836Z,2.33
2022-11-04T02:25:45.764Z,1.92
2022-11-04T02:28:15.393Z,1.13
2022-11-04T02:30:50.054Z,2.70
2022-11-04T02:33:19.755Z,1.02
2022-11-04T02:36:01.291Z,1.48
2022-11-04T02:38:31.072Z,4.75
2022-11-04T02:41:08.869Z,6.75
2022-11-04T02:44:16.194Z,7.85
2022-11-04T02:47:04.579Z,1.80
2022-11-04T02:49:38.402Z,5.03
2022-11-04T02:52:09.687Z,4.22
2022-11-04T02:54:50.121Z,2.90
2022-11-04T02:57:22.672Z,5.18
2022-11-04T03:02:27.928Z,6.40
2022-11-04T03:04:57.934Z,0.70
2022-11-04T03:07:31.384Z,1.17
2022-11-04T03:10:07.945Z,3.10
2022-11-04T03:12:42.504Z,3.33
2022-11-04T03:15:17.627Z,1.33
2022-11-04T03:18:04.932Z,3.25
2022-11-04T03:20:32.108Z,5.55
2022-11-04T03:23:00.323Z,3.65
2022-11-04T03:25:34.649Z,3.47
2022-11-04T03:28:13.569Z,6.53
2022-11-04T03:30:45.903Z,3.80
2022-11-04T03:33:24.656Z,2.80
2022-11-04T03:39:43.284Z,4.35
2022-11-04T03:42:21.666Z,3.13
2022-11-04T03:44:54.184Z,5.60
2022-11-04T03:47:24.415Z,4.20
2022-11-04T03:49:59.019Z,4.32
2022-11-04T03:52:27.165Z,2.13
2022-11-04T03:54:54.167Z,1.70
2022-11-04T03:57:50.415Z,5.05
2022-11-04T04:00:20.419Z,3.30
2022-11-04T04:03:06.506Z,2.65
2022-11-04T04:06:03.638Z,0.40
2022-11-04T04:08:46.811Z,4.45
2022-11-04T04:11:30.804Z,3.85
2022-11-04T04:14:33.962Z,0.65
2022-11-04T04:17:05.116Z,2.03
2022-11-04T04:19:33.866Z,4.47
2022-11-04T04:22:06.955Z,1.88
2022-11-04T04:24:56.986Z,3.00
2022-11-04T04:27:42.480Z,3.78
2022-11-04T04:30:15.273Z,1.85
2022-11-04T04:32:56.343Z,10.65
2022-11-04T04:35:43.802Z,17.67
2022-11-04T04:38:43.671Z,4.90
2022-11-04T04:41:40.224Z,2.28
2022-11-04T04:44:41.550Z,3.83
2022-11-04T04:47:11.121Z,4.13
2022-11-04T04:49:54.974Z,3.38
2022-11-04T04:52:23.408Z,8.25
2022-11-04T04:54:50.369Z,4.25
2022-11-04T04:57:17.479Z,3.47
2022-11-04T04:59:44.494Z,8.88
2022-11-04T05:02:11.619Z,6.13
2022-11-04T05:04:38.661Z,3.97
2022-11-04T05:07:07.707Z,5.20
2022-11-04T05:09:34.759Z,8.20
2022-11-04T05:12:01.890Z,5.88
2022-11-04T05:14:29.302Z,3.50
2022-11-04T05:16:56.359Z,3.03
2022-11-04T05:19:23.342Z,4.22
2022-11-04T05:21:50.307Z,4.38
2022-11-04T05:24:17.357Z,4.47
2022-11-04T05:26:44.387Z,5.50
2022-11-04T05:29:12.440Z,8.50
2022-11-04T05:31:39.806Z,5.70
2022-11-04T05:34:06.830Z,6.45
2022-11-04T05:36:33.864Z,5.43
2022-11-04T05:39:00.995Z,4.78
2022-11-04T05:41:28.049Z,2.83
2022-11-04T05:44:00.287Z,4.85
2022-11-04T05:46:28.304Z,6.00
2022-11-04T05:48:55.940Z,3.00
2022-11-04T05:51:26.610Z,1.67
2022-11-04T05:53:53.644Z,4.82
2022-11-04T05:56:20.958Z,5.60
2022-11-04T05:58:48.128Z,10.93
2022-11-04T06:01:36.101Z,9.75
2022-11-04T06:04:05.185Z,8.23
2022-11-04T06:06:35.294Z,7.72
2022-11-04T06:09:03.612Z,6.82
2022-11-04T06:11:32.160Z,7.65
2022-11-04T06:13:59.578Z,8.98
2022-11-04T06:16:27.011Z,7.45
2022-11-04T06:18:54.417Z,12.77
2022-11-04T06:21:25.935Z,12.68
2022-11-04T06:23:56.714Z,7.88
2022-11-04T06:26:27.842Z,9.18
2022-11-04T06:28:55.563Z,5.13
2022-11-04T06:31:22.972Z,9.88
2022-11-04T06:33:50.034Z,11.52
2022-11-04T06:36:17.390Z,11.20
2022-11-04T06:38:44.730Z,11.07
2022-11-04T06:41:15.232Z,10.98
2022-11-04T06:43:42.359Z,9.43
2022-11-04T06:46:35.449Z,10.52
2022-11-04T06:49:03.501Z,26.25
2022-11-04T06:51:30.866Z,9.88
2022-11-04T06:53:57.853Z,6.15
2022-11-04T06:56:25.275Z,15.20
2022-11-04T06:58:54.231Z,6.70
2022-11-04T07:01:23.412Z,11.52
2022-11-04T07:03:52.325Z,7.88
2022-11-04T07:06:21.100Z,8.75
2022-11-04T07:08:49.380Z,8.02
2022-11-04T07:11:19.603Z,11.00
2022-11-04T07:13:47.177Z,3.55
2022-11-04T07:16:14.299Z,15.70
2022-11-04T07:18:41.647Z,6.47
2022-11-04T07:21:10.344Z,7.78
2022-11-04T07:23:37.747Z,9.98
2022-11-04T07:26:07.373Z,5.15
2022-11-04T07:28:35.140Z,7.00
2022-11-04T07:31:04.433Z,11.73
2022-11-04T07:33:33.684Z,13.15
2022-11-04T07:36:05.309Z,8.27
2022-11-04T07:38:32.570Z,7.55
2022-11-04T07:41:00.376Z,8.07
2022-11-04T07:43:27.721Z,15.00
2022-11-04T07:46:12.003Z,13.10
2022-11-04T07:48:39.127Z,26.73
2022-11-04T07:51:08.659Z,35.65
2022-11-04T07:53:35.659Z,34.60
2022-11-04T07:56:05.358Z,38.72
2022-11-04T07:58:32.766Z,15.25
2022-11-04T08:01:01.562Z,18.23
2022-11-04T08:03:28.745Z,14.07
2022-11-04T08:05:59.811Z,14.13
2022-11-04T08:08:28.149Z,13.98
2022-11-04T08:10:57.733Z,11.82
2022-11-04T08:13:28.484Z,12.45
2022-11-04T08:15:57.874Z,8.27
2022-11-04T08:18:24.879Z,19.63
2022-11-04T08:20:52.655Z,8.60
2022-11-04T08:23:20.297Z,5.80
2022-11-04T08:25:47.290Z,8.68
2022-11-04T08:28:17.583Z,21.25
2022-11-04T08:30:59.275Z,20.48
2022-11-04T08:33:27.506Z,13.82
2022-11-04T08:35:55.868Z,11.90
2022-11-04T08:38:22.849Z,9.73
2022-11-04T08:40:49.979Z,9.15
2022-11-04T08:43:17.394Z,9.80
2022-11-04T08:45:46.615Z,7.85
2022-11-04T08:48:16.481Z,4.65
2022-11-04T08:50:43.780Z,11.27
2022-11-04T08:53:11.152Z,10.85
2022-11-04T08:55:38.283Z,16.70
2022-11-04T08:58:05.449Z,15.63
2022-11-04T09:00:33.057Z,13.48
2022-11-04T09:03:00.486Z,15.90
2022-11-04T09:05:28.727Z,13.63
2022-11-04T09:07:55.828Z,7.72
2022-11-04T09:10:23.203Z,6.57
2022-11-04T09:12:50.242Z,4.40
2022-11-04T09:15:17.352Z,11.52
2022-11-04T09:17:44.478Z,9.05
2022-11-04T09:20:12.170Z,9.48
2022-11-04T09:22:44.593Z,13.15
2022-11-04T09:25:12.713Z,6.20
2022-11-04T09:27:39.721Z,9.70
2022-11-04T09:30:07.146Z,6.53
2022-11-04T09:32:34.153Z,12.27
2022-11-04T09:35:01.280Z,19.42
2022-11-04T09:37:28.315Z,15.45
2022-11-04T09:39:55.481Z,14.43
2022-11-04T09:42:28.854Z,8.10
2022-11-04T09:47:52.700Z,17.88
2022-11-04T09:50:31.944Z,9.35
2022-11-04T09:53:06.656Z,9.60
2022-11-04T09:55:50.427Z,5.70
2022-11-04T09:58:17.672Z,7.60
2022-11-04T10:00:59.068Z,9.43
2022-11-04T10:03:31.797Z,4.97
2022-11-04T10:08:56.211Z,9.20
2022-11-04T10:11:25.935Z,6.65
2022-11-04T10:14:14.568Z,8.63
2022-11-04T10:17:03.229Z,12.00
2022-11-04T10:20:01.465Z,14.68
2022-11-04T10:22:35.213Z,14.07
2022-11-04T10:25:14.004Z,10.02
2022-11-04T10:27:44.840Z,5.22
2022-11-04T10:30:18.504Z,6.88
2022-11-04T10:33:10.443Z,6.53
2022-11-04T10:35:57.284Z,13.63
2022-11-04T10:38:36.387Z,13.43
2022-11-04T10:41:17.884Z,8.55
2022-11-04T10:43:44.992Z,9.43
2022-11-04T10:46:38.771Z,7.75
2022-11-04T10:49:54.723Z,4.85
2022-11-04T10:52:28.349Z,7.40
2022-11-04T10:54:55.384Z,12.30
2022-11-04T10:57:25.838Z,6.85
2022-11-04T10:59:54.468Z,5.30
2022-11-04T11:02:36.729Z,4.93
2022-11-04T11:05:20.611Z,2.83
2022-11-04T11:07:50.804Z,3.67
2022-11-04T11:10:20.554Z,3.42
2022-11-04T11:13:02.010Z,7.05
2022-11-04T11:15:40.038Z,4.03
2022-11-04T11:18:21.094Z,5.95
2022-11-04T11:20:51.260Z,9.77
2022-11-04T11:23:39.890Z,3.30
2022-11-04T11:26:10.246Z,4.40
2022-11-04T11:28:40.458Z,5.00
2022-11-04T11:31:16.507Z,2.65
2022-11-04T11:33:50.186Z,2.47
2022-11-04T11:36:19.308Z,2.95
2022-11-04T11:39:06.642Z,5.82
2022-11-04T11:41:52.899Z,7.28
2022-11-04T11:44:38.701Z,6.47
2022-11-04T11:47:15.391Z,3.80
2022-11-04T11:49:42.482Z,8.05
2022-11-04T11:52:31.782Z,6.40
2022-11-04T11:55:07.493Z,4.88
2022-11-04T11:57:44.749Z,2.95
2022-11-04T12:03:11.945Z,7.97
2022-11-04T12:06:18.944Z,4.55
2022-11-04T12:11:48.553Z,3.95
2022-11-04T12:14:24.065Z,7.30
2022-11-04T12:17:24.846Z,5.72
2022-11-04T12:20:08.843Z,6.35
2022-11-04T12:22:58.364Z,8.13
2022-11-04T12:25:32.628Z,8.30
2022-11-04T12:28:05.932Z,4.22
2022-11-04T12:30:46.697Z,7.90
2022-11-04T12:33:23.860Z,8.88
2022-11-04T12:36:20.683Z,4.97
2022-11-04T12:39:14.431Z,4.45
2022-11-04T12:42:19.060Z,8.65
2022-11-04T12:44:44.424Z,7.97
2022-11-04T12:47:23.633Z,11.35
2022-11-04T12:50:06.193Z,3.13
2022-11-04T12:52:39.278Z,2.03
2022-11-04T12:55:17.300Z,2.15
2022-11-04T12:57:50.000Z,11.50
2022-11-04T13:03:14.938Z,5.07
2022-11-04T13:05:58.252Z,5.90
2022-11-04T13:08:46.272Z,7.60
2022-11-04T13:11:33.237Z,3.80
2022-11-04T13:14:16.221Z,7.43
2022-11-04T13:16:46.919Z,5.07
2022-11-04T13:19:35.269Z,2.22
2022-11-04T13:22:13.736Z,9.40
2022-11-04T13:24:48.964Z,8.18
2022-11-04T13:27:23.564Z,5.70
2022-11-04T13:29:56.253Z,2.38
2022-11-04T13:35:04.655Z,1.17
2022-11-04T13:38:13.101Z,6.03
2022-11-04T13:41:21.847Z,6.82
2022-11-04T13:43:55.240Z,7.15
2022-11-04T13:46:29.978Z,5.60
2022-11-04T13:49:02.249Z,6.15
2022-11-04T13:51:43.031Z,7.28
2022-11-04T13:54:33.499Z,5.72
2022-11-04T13:57:21.840Z,5.03
2022-11-04T14:00:13.380Z,8.77
2022-11-04T14:02:44.868Z,6.75
2022-11-04T14:05:24.080Z,10.30
2022-11-04T14:08:02.851Z,13.30
2022-11-04T14:10:47.820Z,4.68
2022-11-04T14:13:32.885Z,7.70
2022-11-04T14:16:28.907Z,5.20
2022-11-04T14:18:56.052Z,11.00
2022-11-04T14:21:27.497Z,5.65
2022-11-04T14:24:01.799Z,4.45
2022-11-04T14:26:42.362Z,10.32
2022-11-04T14:29:17.922Z,11.65
2022-11-04T14:31:49.984Z,7.15
2022-11-04T14:34:31.009Z,5.10
2022-11-04T14:37:00.767Z,7.72
2022-11-04T14:39:34.215Z,6.80
2022-11-04T14:42:03.663Z,12.68
2022-11-04T14:44:49.352Z,5.32
2022-11-04T14:47:21.395Z,7.53
2022-11-04T14:49:49.717Z,12.65
2022-11-04T14:52:25.895Z,15.75
2022-11-04T14:54:58.217Z,15.15
2022-11-04T14:57:25.280Z,14.57
2022-11-04T14:59:53.764Z,6.82
2022-11-04T15:02:24.797Z,7.25
2022-11-04T15:05:02.202Z,4.03
2022-11-04T15:07:35.839Z,9.45
2022-11-04T15:10:26.950Z,5.35
2022-11-04T15:13:00.255Z,5.78
2022-11-04T15:15:37.619Z,9.52
2022-11-04T15:18:25.521Z,8.65
2022-11-04T15:20:58.141Z,6.97
2022-11-04T15:23:33.403Z,7.80
2022-11-04T15:26:02.100Z,10.55
2022-11-04T15:28:34.647Z,8.25
2022-11-04T15:31:20.701Z,7.07
2022-11-04T15:33:51.630Z,6.00
2022-11-04T15:36:25.217Z,7.95
2022-11-04T15:38:57.929Z,12.95
2022-11-04T15:44:18.139Z,5.88
2022-11-04T15:46:53.346Z,3.40
2022-11-04T15:49:24.277Z,3.10
2022-11-04T15:51:54.102Z,7.38
2022-11-04T15:54:36.451Z,7.88
2022-11-04T15:57:16.672Z,6.88
2022-11-04T15:59:57.972Z,9.38
2022-11-04T16:02:29.358Z,14.63
2022-11-04T16:05:11.611Z,14.00
2022-11-04T16:07:50.213Z,17.95
2022-11-04T16:10:36.930Z,16.25
2022-11-04T16:13:16.121Z,16.00
2022-11-04T16:15:48.043Z,9.77
2022-11-04T16:18:36.464Z,9.98
2022-11-04T16:21:13.250Z,7.93
2022-11-04T16:23:46.881Z,12.98
2022-11-04T16:26:14.354Z,14.05
2022-11-04T16:28:42.726Z,10.23
2022-11-04T16:31:25.931Z,18.75
2022-11-04T16:33:53.167Z,7.75
2022-11-04T16:36:30.924Z,13.18
2022-11-04T16:39:04.404Z,10.05
2022-11-04T16:41:35.924Z,12.45
2022-11-04T16:44:05.091Z,16.27
2022-11-04T16:46:33.722Z,26.20
2022-11-04T16:49:00.728Z,17.98
2022-11-04T16:51:27.700Z,17.95
2022-11-04T16:53:54.732Z,11.63
2022-11-04T16:56:26.456Z,13.02
2022-11-04T16:58:53.535Z,19.67
2022-11-04T17:01:21.329Z,17.35
2022-11-04T17:03:49.275Z,36.60
2022-11-04T17:06:16.987Z,14.98
2022-11-04T17:08:44.250Z,15.10
2022-11-04T17:11:12.433Z,12.75
2022-11-04T17:13:39.464Z,16.00
2022-11-04T17:16:10.296Z,14.23
2022-11-04T17:18:37.396Z,14.32
2022-11-04T17:21:07.546Z,21.45
2022-11-04T17:23:35.299Z,20.25
2022-11-04T17:26:02.307Z,13.45
2022-11-04T17:28:31.463Z,11.77
2022-11-04T17:30:58.688Z,15.18
2022-11-04T17:33:26.786Z,11.32
2022-11-04T17:35:54.280Z,7.45
2022-11-04T17:38:21.530Z,10.93
2022-11-04T17:41:07.131Z,18.90
2022-11-04T17:43:52.882Z,16.15
2022-11-04T17:46:35.407Z,11.02
2022-11-04T17:49:07.153Z,7.03
2022-11-04T17:51:35.340Z,8.05
2022-11-04T17:54:02.604Z,11.73
2022-11-04T17:56:30.931Z,9.77
2022-11-04T17:59:01.630Z,8.45
2022-11-04T18:01:28.815Z,9.68
2022-11-04T18:03:56.002Z,12.18
2022-11-04T18:06:23.641Z,6.25
2022-11-04T18:08:54.883Z,7.25
2022-11-04T18:11:42.728Z,6.85
2022-11-04T18:14:16.222Z,11.38
2022-11-04T18:16:45.641Z,8.57
2022-11-04T18:19:12.727Z,13.23
2022-11-04T18:21:40.338Z,5.90
2022-11-04T18:24:07.577Z,10.98
2022-11-04T18:26:34.878Z,17.45
2022-11-04T18:29:02.404Z,9.00
2022-11-04T18:31:34.397Z,8.57
2022-11-04T18:34:04.958Z,12.48
2022-11-04T18:36:33.730Z,13.05
2022-11-04T18:39:01.284Z,9.98
2022-11-04T18:41:28.346Z,15.57
2022-11-04T18:43:55.412Z,14.25
2022-11-04T18:46:22.580Z,17.65
2022-11-04T18:48:50.807Z,12.25
2022-11-04T18:51:21.945Z,15.73
2022-11-04T18:53:50.405Z,28.27
2022-11-04T18:56:20.529Z,13.82
2022-11-04T18:58:47.699Z,26.02
2022-11-04T19:01:20.064Z,26.48
2022-11-04T19:03:47.783Z,31.20
2022-11-04T19:06:19.020Z,61.72
2022-11-04T19:08:47.216Z,32.28
2022-11-04T19:11:22.575Z,36.35
2022-11-04T19:13:51.824Z,15.50
2022-11-04T19:16:19.253Z,24.60
2022-11-04T19:18:49.236Z,14.38
2022-11-04T19:21:19.468Z,13.07
2022-11-04T19:23:46.903Z,18.38
2022-11-04T19:26:17.358Z,16.08
2022-11-04T19:28:48.657Z,16.17
2022-11-04T19:31:19.285Z,17.13
2022-11-04T19:33:47.218Z,14.88
2022-11-04T19:36:16.608Z,11.48
2022-11-04T19:38:47.201Z,22.27
2022-11-04T19:41:34.954Z,15.00
2022-11-04T19:44:04.190Z,19.67
2022-11-04T19:46:32.526Z,12.93
2022-11-04T19:49:00.459Z,16.33
2022-11-04T19:51:31.959Z,20.90
2022-11-04T19:53:59.805Z,17.02
2022-11-04T19:56:26.886Z,18.92
2022-11-04T19:58:54.286Z,18.67
2022-11-04T20:01:21.608Z,17.05
2022-11-04T20:03:48.811Z,23.92
2022-11-04T20:06:16.536Z,20.23
2022-11-04T20:08:45.542Z,22.98
2022-11-04T20:11:13.802Z,25.45
2022-11-04T20:13:49.991Z,24.45
2022-11-04T20:16:27.521Z,29.50
2022-11-04T20:18:56.877Z,23.05
2022-11-04T20:21:27.687Z,24.00
2022-11-04T20:23:59.387Z,26.08
2022-11-04T20:26:28.251Z,20.87
2022-11-04T20:28:58.228Z,28.63
2022-11-04T20:31:27.555Z,21.65
2022-11-04T20:33:58.475Z,11.70
2022-11-04T20:36:27.212Z,20.48
2022-11-04T20:39:11.763Z,16.75
2022-11-04T20:41:38.753Z,21.25
2022-11-04T20:44:05.775Z,17.83
2022-11-04T20:46:34.655Z,19.75
2022-11-04T20:49:03.107Z,17.85
2022-11-04T20:51:33.029Z,23.48
2022-11-04T20:54:01.813Z,14.63
2022-11-04T20:56:37.128Z,19.33
2022-11-04T20:59:05.965Z,14.82
2022-11-04T21:01:35.859Z,21.60
2022-11-04T21:04:11.981Z,18.88
2022-11-04T21:06:39.552Z,14.40
2022-11-04T21:09:12.715Z,14.45
2022-11-04T21:11:40.584Z,14.02
2022-11-04T21:14:11.270Z,22.02
2022-11-04T21:16:38.755Z,23.27
2022-11-04T21:19:06.692Z,17.08
2022-11-04T21:21:34.031Z,14.10
2022-11-04T21:24:03.460Z,17.17
2022-11-04T21:26:33.949Z,17.10
2022-11-04T21:29:04.083Z,17.23
2022-11-04T21:31:32.781Z,25.13
2022-11-04T21:34:00.672Z,23.55
2022-11-04T21:36:27.929Z,18.65
2022-11-04T21:38:55.366Z,21.40
2022-11-04T21:41:25.800Z,34.38
2022-11-04T21:44:00.561Z,19.10
2022-11-04T21:46:30.354Z,19.88
2022-11-04T21:48:57.498Z,21.38
2022-11-04T21:51:28.808Z,23.55
2022-11-04T21:53:59.749Z,20.35
2022-11-04T21:56:29.236Z,20.05
2022-11-04T21:58:56.762Z,30.65
2022-11-04T22:01:26.636Z,22.98
2022-11-04T22:03:56.469Z,27.02
2022-11-04T22:06:24.970Z,24.35
2022-11-04T22:08:54.900Z,26.73
2022-11-04T22:11:27.835Z,22.30
2022-11-04T22:14:04.293Z,18.85
2022-11-04T22:16:33.657Z,23.65
2022-11-04T22:19:03.417Z,24.88
2022-11-04T22:21:31.558Z,18.95
2022-11-04T22:23:59.580Z,23.98
2022-11-04T22:26:29.247Z,21.42
2022-11-04T22:28:57.319Z,23.00
2022-11-04T22:31:28.231Z,33.08
2022-11-04T22:33:56.768Z,21.65
2022-11-04T22:36:23.905Z,27.05
2022-11-04T22:38:51.015Z,35.80
2022-11-04T22:41:21.519Z,26.33
2022-11-04T22:43:48.721Z,21.58
2022-11-04T22:46:21.698Z,22.08
2022-11-04T22:48:48.725Z,20.90
2022-11-04T22:51:16.612Z,18.83
2022-11-04T22:53:44.610Z,13.68
2022-11-04T22:56:14.310Z,24.50
2022-11-04T22:58:41.593Z,27.33
2022-11-04T23:01:11.461Z,18.98
2022-11-04T23:03:39.390Z,20.85
2022-11-04T23:06:07.671Z,21.73
2022-11-04T23:08:36.171Z,17.98
2022-11-04T23:11:28.525Z,21.70
2022-11-04T23:14:20.818Z,18.67
2022-11-04T23:17:09.148Z,20.38
2022-11-04T23:19:37.773Z,19.65
2022-11-04T23:22:23.954Z,18.13
2022-11-04T23:25:06.194Z,18.05
2022-11-04T23:27:53.700Z,23.45
2022-11-04T23:30:21.151Z,21.38
2022-11-04T23:32:51.954Z,30.50
2022-11-04T23:35:38.998Z,28.35
2022-11-04T23:38:05.987Z,22.83
2022-11-04T23:40:33.479Z,19.73
2022-11-04T23:43:00.536Z,16.30
2022-11-04T23:45:46.318Z,18.95
2022-11-04T23:48:32.157Z,26.95
2022-11-04T23:51:19.937Z,24.75
2022-11-04T23:54:06.306Z,25.02
2022-11-04T23:56:52.192Z,19.13
2022-11-04T23:59:37.915Z,22.58
